createdAt,value
2023-03-20T00:00:10.744Z,5
2023-03-20T00:01:10.733Z,5
2023-03-20T00:02:10.721Z,5
2023-03-20T00:03:10.714Z,5
2023-03-20T00:04:10.827Z,5
2023-03-20T00:05:10.703Z,5
2023-03-20T00:06:10.931Z,5
2023-03-20T00:07:10.690Z,5
2023-03-20T00:08:10.664Z,5
2023-03-20T00:09:10.676Z,5
2023-03-20T00:10:10.640Z,5
2023-03-20T00:11:10.631Z,6
2023-03-20T00:12:10.625Z,6
2023-03-20T00:13:10.610Z,6
2023-03-20T00:14:10.600Z,6
2023-03-20T00:15:10.593Z,5
2023-03-20T00:16:10.632Z,6
2023-03-20T00:17:10.569Z,6
2023-03-20T00:18:10.558Z,5
2023-03-20T00:19:10.554Z,5
2023-03-20T00:20:10.536Z,6
2023-03-20T00:21:10.530Z,6
2023-03-20T00:22:10.518Z,5
2023-03-20T00:23:10.512Z,5
2023-03-20T00:24:10.501Z,6
2023-03-20T00:25:10.510Z,6
2023-03-20T00:26:10.479Z,6
2023-03-20T00:27:10.468Z,6
2023-03-20T00:28:10.458Z,6
2023-03-20T00:29:10.449Z,6
2023-03-20T00:30:10.438Z,6
2023-03-20T00:31:10.541Z,6
2023-03-20T00:32:10.418Z,6
2023-03-20T00:33:10.479Z,6
2023-03-20T00:34:10.440Z,6
2023-03-20T00:35:10.383Z,6
2023-03-20T00:36:10.391Z,5
2023-03-20T00:37:10.365Z,6
2023-03-20T00:38:10.354Z,6
2023-03-20T00:39:10.345Z,5
2023-03-20T00:40:10.338Z,6
2023-03-20T00:41:10.349Z,6
2023-03-20T00:42:10.314Z,6
2023-03-20T00:43:10.305Z,6
2023-03-20T00:44:10.292Z,6
2023-03-20T00:45:10.289Z,6
2023-03-20T00:46:10.274Z,6
2023-03-20T00:47:10.263Z,6
2023-03-20T00:48:10.252Z,6
2023-03-20T00:49:10.242Z,6
2023-03-20T00:50:10.229Z,6
2023-03-20T00:51:10.219Z,6
2023-03-20T00:52:10.208Z,6
2023-03-20T00:53:10.198Z,6
2023-03-20T00:54:10.188Z,6
2023-03-20T00:55:10.179Z,6
2023-03-20T00:56:10.176Z,6
2023-03-20T00:57:10.187Z,6
2023-03-20T00:58:10.148Z,6
2023-03-20T00:59:10.139Z,6
2023-03-20T01:00:10.142Z,6
2023-03-20T01:01:10.161Z,6
2023-03-20T01:02:10.215Z,6
2023-03-20T01:03:10.097Z,6
2023-03-20T01:04:10.085Z,6
2023-03-20T01:05:10.078Z,6
2023-03-20T01:06:10.064Z,6
2023-03-20T01:07:10.049Z,6
2023-03-20T01:08:10.047Z,6
2023-03-20T01:09:10.037Z,6
2023-03-20T01:10:10.029Z,6
2023-03-20T01:11:10.018Z,6
2023-03-20T01:12:10.004Z,6
2023-03-20T01:13:10.116Z,6
2023-03-20T01:14:10.008Z,6
2023-03-20T01:15:09.971Z,6
2023-03-20T01:16:09.996Z,6
2023-03-20T01:17:12.470Z,6
2023-03-20T01:18:09.947Z,6
2023-03-20T01:19:09.929Z,6
2023-03-20T01:20:09.918Z,6
2023-03-20T01:21:09.910Z,6
2023-03-20T01:22:09.902Z,6
2023-03-20T01:23:09.892Z,6
2023-03-20T01:24:09.882Z,6
2023-03-20T01:25:09.869Z,6
2023-03-20T01:26:09.858Z,6
2023-03-20T01:27:09.851Z,6
2023-03-20T01:28:09.840Z,6
2023-03-20T01:29:09.850Z,6
2023-03-20T01:30:09.967Z,6
2023-03-20T01:31:09.814Z,6
2023-03-20T01:32:09.846Z,6
2023-03-20T01:33:09.813Z,6
2023-03-20T01:34:09.778Z,6
2023-03-20T01:35:09.822Z,6
2023-03-20T01:36:09.794Z,6
2023-03-20T01:37:09.751Z,6
2023-03-20T01:38:09.734Z,6
2023-03-20T01:39:09.722Z,6
2023-03-20T01:40:09.866Z,6
2023-03-20T01:41:09.702Z,6
2023-03-20T01:42:09.695Z,6
2023-03-20T01:43:09.686Z,6
2023-03-20T01:44:09.677Z,6
2023-03-20T01:45:09.691Z,6
2023-03-20T01:46:09.809Z,6
2023-03-20T01:47:09.644Z,6
2023-03-20T01:48:09.633Z,6
2023-03-20T01:49:09.627Z,6
2023-03-20T01:50:09.614Z,6
2023-03-20T01:51:09.604Z,6
2023-03-20T01:52:09.599Z,6
2023-03-20T01:53:09.642Z,5
2023-03-20T01:54:09.587Z,5
2023-03-20T01:55:09.565Z,5
2023-03-20T01:56:09.556Z,5
2023-03-20T01:57:09.545Z,5
2023-03-20T01:58:09.888Z,5
2023-03-20T01:59:09.521Z,5
2023-03-20T02:00:09.518Z,5
2023-03-20T02:01:09.720Z,5
2023-03-20T02:02:09.495Z,5
2023-03-20T02:03:09.493Z,5
2023-03-20T02:04:09.486Z,5
2023-03-20T02:05:09.522Z,5
2023-03-20T02:06:09.452Z,5
2023-03-20T02:07:09.442Z,5
2023-03-20T02:08:09.433Z,5
2023-03-20T02:09:09.427Z,5
2023-03-20T02:10:09.460Z,5
2023-03-20T02:11:09.405Z,5
2023-03-20T02:12:09.395Z,5
2023-03-20T02:13:09.383Z,5
2023-03-20T02:14:09.369Z,5
2023-03-20T02:15:09.425Z,4
2023-03-20T02:16:09.351Z,4
2023-03-20T02:17:09.364Z,4
2023-03-20T02:18:09.329Z,4
2023-03-20T02:19:09.317Z,4
2023-03-20T02:20:09.310Z,4
2023-03-20T02:21:09.348Z,4
2023-03-20T02:22:09.290Z,4
2023-03-20T02:23:09.279Z,4
2023-03-20T02:24:09.270Z,4
2023-03-20T02:25:09.263Z,4
2023-03-20T02:26:09.250Z,4
2023-03-20T02:27:09.236Z,4
2023-03-20T02:28:09.231Z,4
2023-03-20T02:29:09.219Z,4
2023-03-20T02:30:09.209Z,4
2023-03-20T02:31:09.218Z,5
2023-03-20T02:32:09.192Z,5
2023-03-20T02:33:09.461Z,5
2023-03-20T02:34:09.176Z,5
2023-03-20T02:35:09.154Z,5
2023-03-20T02:36:09.169Z,5
2023-03-20T02:37:09.138Z,5
2023-03-20T02:38:09.126Z,5
2023-03-20T02:39:09.120Z,5
2023-03-20T02:40:09.111Z,5
2023-03-20T02:41:09.128Z,5
2023-03-20T02:42:09.108Z,5
2023-03-20T02:43:09.076Z,5
2023-03-20T02:44:09.071Z,5
2023-03-20T02:45:09.061Z,4
2023-03-20T02:46:09.087Z,4
2023-03-20T02:47:09.037Z,5
2023-03-20T02:48:09.027Z,5
2023-03-20T02:49:09.054Z,5
2023-03-20T02:50:09.005Z,4
2023-03-20T02:51:08.996Z,5
2023-03-20T02:52:08.987Z,5
2023-03-20T02:53:08.974Z,4
2023-03-20T02:54:08.964Z,5
2023-03-20T02:55:08.957Z,5
2023-03-20T02:56:08.943Z,5
2023-03-20T02:57:08.939Z,5
2023-03-20T02:58:08.922Z,5
2023-03-20T02:59:08.910Z,5
2023-03-20T03:00:08.913Z,5
2023-03-20T03:01:08.929Z,5
2023-03-20T03:02:08.887Z,5
2023-03-20T03:03:08.901Z,5
2023-03-20T03:04:08.870Z,5
2023-03-20T03:05:08.877Z,5
2023-03-20T03:06:08.845Z,5
2023-03-20T03:07:08.835Z,5
2023-03-20T03:08:08.827Z,5
2023-03-20T03:09:08.818Z,5
2023-03-20T03:10:08.805Z,5
2023-03-20T03:11:08.835Z,5
2023-03-20T03:12:08.783Z,5
2023-03-20T03:13:08.773Z,5
2023-03-20T03:14:08.767Z,5
2023-03-20T03:15:08.757Z,5
2023-03-20T03:16:08.821Z,5
2023-03-20T03:17:08.744Z,5
2023-03-20T03:18:08.726Z,5
2023-03-20T03:19:08.720Z,6
2023-03-20T03:20:08.702Z,5
2023-03-20T03:21:08.738Z,6
2023-03-20T03:22:08.687Z,6
2023-03-20T03:23:08.679Z,6
2023-03-20T03:24:08.662Z,6
2023-03-20T03:26:08.645Z,5
2023-03-20T03:27:08.637Z,6
2023-03-20T03:28:08.625Z,6
2023-03-20T03:29:08.622Z,6
2023-03-20T03:30:08.609Z,6
2023-03-20T03:31:08.697Z,6
2023-03-20T03:32:08.587Z,6
2023-03-20T03:33:08.669Z,6
2023-03-20T03:34:08.564Z,6
2023-03-20T03:35:08.555Z,6
2023-03-20T03:36:08.585Z,6
2023-03-20T03:37:08.554Z,6
2023-03-20T03:38:08.524Z,6
2023-03-20T03:39:08.514Z,6
2023-03-20T03:40:08.503Z,6
2023-03-20T03:41:08.498Z,6
2023-03-20T03:42:08.482Z,6
2023-03-20T03:43:08.471Z,6
2023-03-20T03:44:08.460Z,6
2023-03-20T03:45:08.455Z,6
2023-03-20T03:46:08.444Z,6
2023-03-20T03:47:08.433Z,6
2023-03-20T03:48:08.441Z,6
2023-03-20T03:49:08.415Z,6
2023-03-20T03:50:08.405Z,6
2023-03-20T03:51:08.399Z,6
2023-03-20T03:52:08.383Z,6
2023-03-20T03:53:08.397Z,6
2023-03-20T03:54:08.362Z,6
2023-03-20T03:55:08.360Z,7
2023-03-20T03:56:08.372Z,7
2023-03-20T03:57:08.334Z,7
2023-03-20T03:58:08.324Z,7
2023-03-20T03:59:08.312Z,7
2023-03-20T04:00:08.302Z,7
2023-03-20T04:01:08.294Z,7
2023-03-20T04:02:08.484Z,7
2023-03-20T04:03:08.275Z,6
2023-03-20T04:04:08.406Z,6
2023-03-20T04:05:08.263Z,7
2023-03-20T04:06:08.248Z,6
2023-03-20T04:07:08.238Z,7
2023-03-20T04:08:08.225Z,7
2023-03-20T04:09:08.238Z,7
2023-03-20T04:10:08.217Z,7
2023-03-20T04:11:08.199Z,7
2023-03-20T04:12:08.190Z,7
2023-03-20T04:14:08.195Z,7
2023-03-20T04:15:08.156Z,7
2023-03-20T04:16:08.184Z,8
2023-03-20T04:17:08.140Z,8
2023-03-20T04:18:08.134Z,8
2023-03-20T04:19:08.117Z,8
2023-03-20T04:20:08.118Z,7
2023-03-20T04:21:08.099Z,7
2023-03-20T04:22:08.090Z,7
2023-03-20T04:23:08.075Z,7
2023-03-20T04:24:08.072Z,7
2023-03-20T04:25:08.084Z,7
2023-03-20T04:26:08.046Z,7
2023-03-20T04:27:08.040Z,8
2023-03-20T04:28:08.030Z,8
2023-03-20T04:29:08.025Z,8
2023-03-20T04:30:08.011Z,8
2023-03-20T04:31:08.053Z,8
2023-03-20T04:32:07.992Z,8
2023-03-20T04:33:08.039Z,8
2023-03-20T04:34:07.985Z,8
2023-03-20T04:35:07.962Z,8
2023-03-20T04:36:08.025Z,8
2023-03-20T04:37:07.944Z,8
2023-03-20T04:38:07.951Z,8
2023-03-20T04:39:07.922Z,8
2023-03-20T04:40:07.908Z,8
2023-03-20T04:41:07.932Z,8
2023-03-20T04:42:07.889Z,8
2023-03-20T04:43:07.886Z,8
2023-03-20T04:44:07.869Z,8
2023-03-20T04:45:07.861Z,8
2023-03-20T04:46:07.941Z,8
2023-03-20T04:47:07.837Z,8
2023-03-20T04:48:07.828Z,7
2023-03-20T04:49:07.812Z,7
2023-03-20T04:50:07.819Z,7
2023-03-20T04:51:07.796Z,7
2023-03-20T04:52:07.785Z,7
2023-03-20T04:53:07.778Z,73.
2023-03-20T04:54:07.868Z,74.
2023-03-20T04:55:07.769Z,77.
2023-03-20T04:56:07.756Z,78.
2023-03-20T04:57:07.760Z,80.
2023-03-20T04:58:07.723Z,8
2023-03-20T04:59:07.718Z,8
2023-03-20T05:00:07.715Z,8
2023-03-20T05:01:07.745Z,84.
2023-03-20T05:02:07.680Z,84.
2023-03-20T05:03:07.676Z,84.
2023-03-20T05:04:07.711Z,8
2023-03-20T05:05:07.654Z,84.
2023-03-20T05:06:07.651Z,86.
2023-03-20T05:07:07.629Z,87.
2023-03-20T05:08:07.628Z,86.
2023-03-20T05:09:07.622Z,88.
2023-03-20T05:10:07.600Z,88.
2023-03-20T05:11:07.592Z,89.
2023-03-20T05:12:07.581Z,87.
2023-03-20T05:13:07.589Z,87.
2023-03-20T05:14:07.562Z,87.
2023-03-20T05:18:07.539Z,88.
2023-03-20T05:19:07.511Z,90.
2023-03-20T05:20:07.493Z,90.
2023-03-20T05:21:07.492Z,90.
2023-03-20T05:22:07.477Z,87.
2023-03-20T05:23:07.473Z,89.
2023-03-20T05:24:07.456Z,86.
2023-03-20T05:25:07.445Z,87.
2023-03-20T05:26:07.448Z,85.
2023-03-20T05:27:07.424Z,84.
2023-03-20T05:28:07.416Z,84.
2023-03-20T05:29:07.425Z,83.
2023-03-20T05:30:07.422Z,81.
2023-03-20T05:31:07.422Z,83.
2023-03-20T05:32:07.372Z,83.
2023-03-20T05:33:07.409Z,84.69
2023-03-20T05:34:07.361Z,82.30
2023-03-20T05:35:07.343Z,83.00
2023-03-20T05:36:07.509Z,82.00
2023-03-20T05:37:07.325Z,78.09
2023-03-20T05:38:07.312Z,82.30
2023-03-20T05:39:07.302Z,78.19
2023-03-20T05:42:07.280Z,82.59
2023-03-20T05:43:07.274Z,82.69
2023-03-20T05:44:07.249Z,82.59
2023-03-20T05:45:07.270Z,84.30
2023-03-20T05:46:07.256Z,84.00
2023-03-20T05:47:07.220Z,84.30
2023-03-20T05:48:07.210Z,86.69
2023-03-20T05:49:07.202Z,87.59
2023-03-20T05:50:07.210Z,89.00
2023-03-20T05:51:07.186Z,89.69
2023-03-20T05:52:07.184Z,89.19
2023-03-20T05:53:07.169Z,87.59
2023-03-20T05:54:07.151Z,86.09
2023-03-20T05:55:07.140Z,85.19
2023-03-20T05:56:07.133Z,83.80
2023-03-20T05:57:07.200Z,87.00
2023-03-20T05:58:07.112Z,84.19
2023-03-20T05:59:07.109Z,84.19
2023-03-20T06:00:07.094Z,83.80
2023-03-20T06:01:07.114Z,85.90
2023-03-20T06:02:07.204Z,86.30
2023-03-20T06:03:07.109Z,84.80
2023-03-20T06:04:07.055Z,86.19
2023-03-20T06:05:07.036Z,83.30
2023-03-20T06:06:07.047Z,80.40
2023-03-20T06:07:07.035Z,86.69
2023-03-20T06:08:07.010Z,82.30
2023-03-20T06:09:07.011Z,79.59
2023-03-20T06:10:06.990Z,80.19
2023-03-20T06:11:06.978Z,77.09
2023-03-20T06:12:06.970Z,81.69
2023-03-20T06:13:06.961Z,82.80
2023-03-20T06:14:06.945Z,83.40
2023-03-20T06:15:06.938Z,82.69
2023-03-20T06:16:07.019Z,84.00
2023-03-20T06:17:06.953Z,81.50
2023-03-20T06:18:06.910Z,81.69
2023-03-20T06:19:06.898Z,81.30
2023-03-20T06:20:06.888Z,82.59
2023-03-20T06:21:06.871Z,82.40
2023-03-20T06:22:06.871Z,80.59
2023-03-20T06:23:06.859Z,78.59
2023-03-20T06:24:06.848Z,77.40
2023-03-20T06:25:06.839Z,75.30
2023-03-20T06:26:06.830Z,74.90
2023-03-20T06:27:06.816Z,70.59
2023-03-20T06:28:06.810Z,71.80
2023-03-20T06:29:06.795Z,72.30
2023-03-20T06:30:06.798Z,77.90
2023-03-20T06:31:06.835Z,77.80
2023-03-20T06:32:06.758Z,80.40
2023-03-20T06:33:06.855Z,79.40
2023-03-20T06:34:06.743Z,76.90
2023-03-20T06:35:06.729Z,78.09
2023-03-20T06:36:06.718Z,76.50
2023-03-20T06:37:06.703Z,77.19
2023-03-20T06:38:06.699Z,78.80
2023-03-20T06:39:06.689Z,76.40
2023-03-20T06:40:06.675Z,76.19
2023-03-20T06:41:06.669Z,77.59
2023-03-20T06:42:06.655Z,76.00
2023-03-20T06:43:06.647Z,75.09
2023-03-20T06:44:06.648Z,76.80
2023-03-20T06:45:06.680Z,76.09
2023-03-20T06:46:06.699Z,75.09
2023-03-20T06:47:06.604Z,75.30
2023-03-20T06:48:06.598Z,74.90
2023-03-20T06:49:06.623Z,74.19
2023-03-20T06:50:06.575Z,72.00
2023-03-20T06:51:06.564Z,70.80
2023-03-20T06:52:06.576Z,71.69
2023-03-20T06:53:06.545Z,70.19
2023-03-20T06:54:06.529Z,68.69
2023-03-20T06:55:06.523Z,68.69
2023-03-20T06:56:06.512Z,69.80
2023-03-20T06:57:06.509Z,66.00
2023-03-20T06:58:06.521Z,66.59
2023-03-20T06:59:06.484Z,67.90
2023-03-20T07:00:06.474Z,68.59
2023-03-20T07:01:06.460Z,66.09
2023-03-20T07:02:06.546Z,65.40
2023-03-20T07:03:06.443Z,65.30
2023-03-20T07:04:06.581Z,65.09
2023-03-20T07:05:06.493Z,63.59
2023-03-20T07:06:06.413Z,64.69
2023-03-20T07:07:06.409Z,65.30
2023-03-20T07:08:06.397Z,64.69
2023-03-20T07:09:06.380Z,64.90
2023-03-20T07:10:06.376Z,64.00
2023-03-20T07:11:06.371Z,58.79
2023-03-20T07:12:06.357Z,57.40
2023-03-20T07:13:06.359Z,58.70
2023-03-20T07:14:06.345Z,60.00
2023-03-20T07:15:06.338Z,56.79
2023-03-20T07:16:06.357Z,57.40
2023-03-20T07:17:06.332Z,57.59
2023-03-20T07:18:06.339Z,57.90
2023-03-20T07:19:06.320Z,57.09
2023-03-20T07:20:06.280Z,53.70
2023-03-20T07:21:06.322Z,54.40
2023-03-20T07:22:06.258Z,50.79
2023-03-20T07:24:06.232Z,53.50
2023-03-20T07:25:06.227Z,52.20
2023-03-20T07:26:06.214Z,51.50
2023-03-20T07:27:06.201Z,51.50
2023-03-20T07:28:06.194Z,51.79
2023-03-20T07:29:06.185Z,53.00
2023-03-20T07:30:06.170Z,51.79
2023-03-20T07:31:06.199Z,51.70
2023-03-20T07:32:06.149Z,51.79
2023-03-20T07:33:06.238Z,52.09
2023-03-20T07:34:06.133Z,49.90
2023-03-20T07:35:06.121Z,48.79
2023-03-20T07:36:06.200Z,48.09
2023-03-20T07:37:06.122Z,47.59
2023-03-20T07:38:06.091Z,47.09
2023-03-20T07:39:06.078Z,47.90
2023-03-20T07:40:06.067Z,47.29
2023-03-20T07:41:06.067Z,47.09
2023-03-20T07:42:06.046Z,47.70
2023-03-20T07:43:06.031Z,46.50
2023-03-20T07:44:06.021Z,46.40
2023-03-20T07:45:06.016Z,47.70
2023-03-20T07:46:06.091Z,47.70
2023-03-20T07:47:05.999Z,48.20
2023-03-20T07:48:06.077Z,49.59
2023-03-20T07:49:05.970Z,46.59
2023-03-20T07:50:08.223Z,47.29
2023-03-20T07:51:05.959Z,47.70
2023-03-20T07:52:05.941Z,47.79
2023-03-20T07:53:05.961Z,47.70
2023-03-20T07:54:05.918Z,47.00
2023-03-20T07:55:05.911Z,46.59
2023-03-20T07:56:05.901Z,46.50
2023-03-20T07:57:05.901Z,46.20
2023-03-20T07:58:05.878Z,45.90
2023-03-20T07:59:05.869Z,46.09
2023-03-20T08:00:05.900Z,46.00
2023-03-20T08:01:05.854Z,46.40
2023-03-20T08:02:05.833Z,46.00
2023-03-20T08:03:05.910Z,44.59
2023-03-20T08:04:05.980Z,43.40
2023-03-20T08:05:05.808Z,41.59
2023-03-20T08:06:05.801Z,43.90
2023-03-20T08:07:05.808Z,43.09
2023-03-20T08:08:05.773Z,43.29
2023-03-20T08:09:05.788Z,41.90
2023-03-20T08:10:05.762Z,41.70
2023-03-20T08:11:05.748Z,42.40
2023-03-20T08:12:05.733Z,42.09
2023-03-20T08:13:05.781Z,40.09
2023-03-20T08:14:05.835Z,41.90
2023-03-20T08:15:05.712Z,42.09
2023-03-20T08:16:05.751Z,41.90
2023-03-20T08:17:14.466Z,40.09
2023-03-20T08:18:06.699Z,40.
2023-03-20T08:20:05.656Z,40.59
2023-03-20T08:21:05.650Z,40.29
2023-03-20T08:22:05.634Z,39.70
2023-03-20T08:23:05.626Z,41.50
2023-03-20T08:24:05.621Z,38.79
2023-03-20T08:25:05.632Z,39.70
2023-03-20T08:26:05.599Z,38.70
2023-03-20T08:27:05.584Z,36.40
2023-03-20T08:28:05.575Z,36.79
2023-03-20T08:29:05.561Z,37.70
2023-03-20T08:30:05.562Z,35.50
2023-03-20T08:31:05.646Z,38.79
2023-03-20T08:32:05.536Z,37.00
2023-03-20T08:33:05.596Z,35.20
2023-03-20T08:34:05.517Z,37.79
2023-03-20T08:35:05.505Z,30.70
2023-03-20T08:36:05.546Z,34.59
2023-03-20T08:37:05.490Z,32.90
2023-03-20T08:38:05.534Z,28.89
2023-03-20T08:39:05.465Z,31.10
2023-03-20T08:40:05.450Z,33.70
2023-03-20T08:41:05.470Z,27.39
2023-03-20T08:42:05.433Z,31.10
2023-03-20T08:43:05.425Z,33.59
2023-03-20T08:44:05.412Z,35.70
2023-03-20T08:45:05.405Z,26.10
2023-03-20T08:46:05.424Z,27.20
2023-03-20T08:47:05.384Z,25.79
2023-03-20T08:48:05.372Z,25.10
2023-03-20T08:49:05.392Z,25.10
2023-03-20T08:50:05.351Z,22.29
2023-03-20T08:51:05.345Z,23.20
2023-03-20T08:52:05.439Z,25.79
2023-03-20T08:53:05.326Z,30.00
2023-03-20T08:54:05.320Z,31.39
2023-03-20T08:55:05.300Z,28.50
2023-03-20T08:56:05.298Z,28.29
2023-03-20T08:57:05.319Z,28.89
2023-03-20T08:58:05.266Z,29.29
2023-03-20T08:59:05.261Z,27.60
2023-03-20T09:00:05.244Z,28.89
2023-03-20T09:01:05.291Z,29.50
2023-03-20T09:02:05.398Z,29.39
2023-03-20T09:03:05.279Z,29.10
2023-03-20T09:04:05.203Z,30.20
2023-03-20T09:05:05.213Z,30.50
2023-03-20T09:06:05.184Z,29.60
2023-03-20T09:07:05.179Z,30.10
2023-03-20T09:08:05.164Z,30.79
2023-03-20T09:09:05.172Z,30.70
2023-03-20T09:10:05.164Z,31.39
2023-03-20T09:11:05.135Z,32.50
2023-03-20T09:12:05.129Z,31.50
2023-03-20T09:13:23.424Z,30.20
2023-03-20T09:14:06.128Z,31.50
2023-03-20T09:15:05.094Z,30.79
2023-03-20T09:16:05.150Z,30.29
2023-03-20T09:17:05.077Z,29.39
2023-03-20T09:18:05.064Z,31.20
2023-03-20T09:19:05.057Z,31.20
2023-03-20T09:20:05.042Z,31.00
2023-03-20T09:21:05.037Z,31.00
2023-03-20T09:22:05.023Z,30.00
2023-03-20T09:23:05.015Z,29.29
2023-03-20T09:24:05.004Z,29.20
2023-03-20T09:25:04.996Z,28.29
2023-03-20T09:26:05.043Z,28.89
2023-03-20T09:27:04.973Z,29.20
2023-03-20T09:28:04.972Z,29.00
2023-03-20T09:29:04.981Z,28.00
2023-03-20T09:30:04.941Z,28.79
2023-03-20T09:31:04.994Z,27.39
2023-03-20T09:32:04.927Z,26.79
2023-03-20T09:33:04.969Z,26.70
2023-03-20T09:34:04.961Z,26.39
2023-03-20T09:35:04.895Z,26.89
2023-03-20T09:36:04.929Z,28.00
2023-03-20T09:37:04.878Z,27.89
2023-03-20T09:38:04.866Z,26.89
2023-03-20T09:39:04.859Z,27.00
2023-03-20T09:40:04.846Z,27.70
2023-03-20T09:41:04.837Z,26.50
2023-03-20T09:42:04.825Z,27.00
2023-03-20T09:43:04.815Z,26.70
2023-03-20T09:44:04.806Z,26.00
2023-03-20T09:45:04.859Z,26.00
2023-03-20T09:46:04.877Z,26.20
2023-03-20T09:47:18.877Z,25.70
2023-03-20T09:48:05.784Z,24.10
2023-03-20T09:49:04.758Z,24.10
2023-03-20T09:50:04.749Z,24.60
2023-03-20T09:51:04.732Z,24.50
2023-03-20T09:52:04.722Z,24.50
2023-03-20T09:53:04.718Z,23.79
2023-03-20T09:54:04.702Z,23.70
2023-03-20T09:55:04.710Z,24.00
2023-03-20T09:56:04.686Z,23.89
2023-03-20T09:57:04.675Z,23.20
2023-03-20T09:58:04.668Z,22.10
2023-03-20T09:59:04.657Z,22.20
2023-03-20T10:00:04.644Z,22.60
2023-03-20T10:01:04.691Z,21.70
2023-03-20T10:02:04.797Z,22.29
2023-03-20T10:03:04.627Z,22.00
2023-03-20T10:04:04.703Z,22.39
2023-03-20T10:05:04.595Z,23.39
2023-03-20T10:06:04.597Z,21.79
2023-03-20T10:07:04.575Z,22.39
2023-03-20T10:08:04.565Z,23.00
2023-03-20T10:09:04.555Z,22.79
2023-03-20T10:10:04.544Z,23.00
2023-03-20T10:11:04.535Z,22.20
2023-03-20T10:12:04.528Z,21.79
2023-03-20T10:13:04.515Z,21.39
2023-03-20T10:14:04.505Z,21.10
2023-03-20T10:15:04.495Z,20.29
2023-03-20T10:16:04.535Z,19.89
2023-03-20T10:17:04.509Z,21.10
2023-03-20T10:18:04.471Z,21.39
2023-03-20T10:19:04.464Z,22.20
2023-03-20T10:20:04.449Z,23.00
2023-03-20T10:21:04.435Z,22.20
2023-03-20T10:22:04.435Z,22.79
2023-03-20T10:23:04.419Z,21.50
2023-03-20T10:24:04.439Z,22.70
2023-03-20T10:25:04.416Z,21.39
2023-03-20T10:26:04.388Z,21.60
2023-03-20T10:27:04.386Z,22.60
2023-03-20T10:28:04.424Z,22.20
2023-03-20T10:29:04.361Z,22.60
2023-03-20T10:30:04.352Z,22.20
2023-03-20T10:31:04.439Z,22.79
2023-03-20T10:32:04.334Z,21.50
2023-03-20T10:33:04.462Z,24.00
2023-03-20T10:34:04.312Z,24.39
2023-03-20T10:35:04.303Z,23.89
2023-03-20T10:36:04.361Z,24.10
2023-03-20T10:37:04.291Z,24.10
2023-03-20T10:38:04.274Z,23.60
2023-03-20T10:39:04.262Z,22.70
2023-03-20T10:40:04.253Z,24.00
2023-03-20T10:41:04.249Z,25.20
2023-03-20T10:42:04.237Z,24.00
2023-03-20T10:43:04.227Z,23.29
2023-03-20T10:44:04.213Z,20.79
2023-03-20T10:45:04.203Z,20.50
2023-03-20T10:46:04.195Z,21.00
2023-03-20T10:47:04.191Z,19.70
2023-03-20T10:48:04.238Z,20.50
2023-03-20T10:49:04.193Z,21.50
2023-03-20T10:50:04.157Z,21.00
2023-03-20T10:51:04.156Z,20.79
2023-03-20T10:52:04.139Z,22.00
2023-03-20T10:53:04.136Z,22.20
2023-03-20T10:54:04.117Z,23.39
2023-03-20T10:55:04.108Z,22.79
2023-03-20T10:56:04.098Z,24.20
2023-03-20T10:57:04.087Z,24.10
2023-03-20T10:58:04.074Z,23.50
2023-03-20T10:59:04.075Z,21.39
2023-03-20T11:00:04.060Z,22.70
2023-03-20T11:01:04.056Z,23.29
2023-03-20T11:02:04.041Z,23.00
2023-03-20T11:03:04.028Z,22.70
2023-03-20T11:04:04.091Z,21.89
2023-03-20T11:05:04.034Z,21.10
2023-03-20T11:06:09.718Z,20.79
2023-03-20T11:07:05.014Z,20.89
2023-03-20T11:08:03.980Z,20.50
2023-03-20T11:09:03.972Z,20.50
2023-03-20T11:10:03.964Z,21.10
2023-03-20T11:11:03.952Z,21.50
2023-03-20T11:12:03.949Z,22.00
2023-03-20T11:13:03.934Z,22.50
2023-03-20T11:14:03.925Z,21.89
2023-03-20T11:15:03.916Z,22.20
2023-03-20T11:16:03.908Z,21.39
2023-03-20T11:17:03.962Z,20.50
2023-03-20T11:18:03.898Z,20.39
2023-03-20T11:19:05.934Z,19.70
2023-03-20T11:20:03.869Z,19.00
2023-03-20T11:21:03.887Z,18.50
2023-03-20T11:22:03.859Z,17.39
2023-03-20T11:23:03.843Z,16.60
2023-03-20T11:24:03.829Z,16.89
2023-03-20T11:25:03.821Z,17.10
2023-03-20T11:26:03.811Z,16.79
2023-03-20T11:27:03.798Z,16.20
2023-03-20T11:28:03.788Z,17.70
2023-03-20T11:29:03.787Z,16.20
2023-03-20T11:30:03.778Z,17.00
2023-03-20T11:31:05.390Z,16.10
2023-03-20T11:32:03.771Z,17.29
2023-03-20T11:33:03.828Z,16.39
2023-03-20T11:34:03.735Z,16.70
2023-03-20T11:35:03.723Z,16.50
2023-03-20T11:36:03.758Z,15.69
2023-03-20T11:38:34.913Z,16.39
2023-03-20T11:39:36.340Z,15.80
2023-03-20T11:40:36.605Z,16.00
2023-03-20T11:41:58.157Z,16.00
2023-03-20T11:42:36.316Z,15.69
2023-03-20T11:43:36.303Z,15.19
2023-03-20T11:44:36.296Z,15.50
2023-03-20T11:46:33.289Z,15.30
2023-03-20T11:46:36.267Z,16.29
2023-03-20T11:47:36.263Z,16.20
2023-03-20T11:51:07.308Z,15.80
2023-03-20T11:51:08.716Z,15.30
2023-03-20T12:15:10.458Z,15.10
2023-03-20T12:18:59.963Z,14.00
2023-03-20T14:20:17.690Z,15.39
2023-03-20T14:23:55.055Z,14.60
2023-03-20T14:23:56.487Z,15.19
2023-03-20T15:28:28.163Z,15.19
2023-03-20T15:31:25.451Z,18.89
2023-03-20T15:32:25.039Z,21.20
2023-03-20T15:35:21.745Z,20.70
2023-03-20T15:35:23.145Z,22.10
2023-03-20T15:36:23.145Z,21.89
2023-03-20T15:37:23.117Z,20.50
2023-03-20T15:38:23.107Z,21.50
2023-03-20T15:39:23.112Z,21.50
2023-03-20T15:40:23.088Z,22.89
2023-03-20T15:41:42.148Z,21.29
2023-03-20T15:45:15.399Z,21.60
2023-03-20T15:46:18.985Z,21.50
2023-03-20T15:47:16.808Z,22.00
2023-03-20T15:48:16.798Z,21.60
2023-03-20T15:49:16.784Z,21.60
2023-03-20T15:50:16.793Z,22.00
2023-03-20T15:51:16.774Z,22.29
2023-03-20T15:52:16.763Z,21.50
2023-03-20T15:53:16.752Z,22.60
2023-03-20T15:54:16.739Z,22.89
2023-03-20T15:55:16.725Z,21.29
2023-03-20T15:56:19.212Z,22.50
2023-03-20T15:57:16.715Z,22.89
2023-03-20T15:58:16.708Z,23.50
2023-03-20T15:59:16.690Z,23.89
2023-03-20T16:00:16.681Z,23.20
2023-03-20T16:01:16.720Z,22.60
2023-03-20T16:02:16.661Z,23.50
2023-03-20T16:03:16.656Z,24.89
2023-03-20T16:04:16.647Z,25.50
2023-03-20T16:05:16.639Z,24.70
2023-03-20T16:06:16.648Z,25.20
2023-03-20T16:07:16.615Z,25.10
2023-03-20T16:08:16.613Z,25.39
2023-03-20T16:09:16.598Z,25.00
2023-03-20T16:10:16.596Z,24.50
2023-03-20T16:11:16.601Z,25.50
2023-03-20T16:12:16.570Z,24.29
2023-03-20T16:13:16.558Z,25.70
2023-03-20T16:14:16.549Z,26.10
2023-03-20T16:15:16.535Z,26.70
2023-03-20T16:16:16.603Z,26.70
2023-03-20T16:17:16.614Z,25.50
2023-03-20T16:18:16.535Z,25.70
2023-03-20T16:19:16.497Z,26.70
2023-03-20T16:20:16.494Z,26.89
2023-03-20T16:21:16.478Z,27.89
2023-03-20T16:22:16.480Z,27.29
2023-03-20T16:23:16.460Z,27.70
2023-03-20T16:24:16.448Z,28.89
2023-03-20T16:25:16.444Z,29.20
2023-03-20T16:26:16.440Z,27.89
2023-03-20T16:27:16.443Z,27.70
2023-03-20T16:28:16.410Z,29.10
2023-03-20T16:29:16.402Z,29.60
2023-03-20T16:30:16.396Z,29.29
2023-03-20T16:31:16.506Z,29.20
2023-03-20T16:32:16.369Z,29.39
2023-03-20T16:33:16.469Z,29.20
2023-03-20T16:34:16.348Z,29.29
2023-03-20T16:35:16.342Z,30.39
2023-03-20T16:36:16.328Z,29.60
2023-03-20T16:37:16.320Z,30.39
2023-03-20T16:38:16.316Z,30.70
2023-03-20T16:39:16.313Z,29.70
2023-03-20T16:40:16.296Z,30.60
2023-03-20T16:41:16.281Z,29.60
2023-03-20T16:42:16.268Z,31.89
2023-03-20T16:43:16.255Z,31.29
2023-03-20T16:44:16.252Z,31.10
2023-03-20T16:45:16.236Z,32.90
2023-03-20T16:46:16.229Z,31.60
2023-03-20T16:47:16.334Z,33.29
2023-03-20T16:48:16.206Z,32.50
2023-03-20T16:49:16.220Z,32.29
2023-03-20T16:50:16.184Z,31.60
2023-03-20T16:51:16.178Z,32.50
2023-03-20T16:53:16.393Z,34.09
2023-03-20T16:54:16.147Z,33.79
2023-03-20T16:55:16.131Z,35.29
2023-03-20T16:56:16.148Z,35.00
2023-03-20T16:57:16.113Z,35.40
2023-03-20T16:58:16.105Z,34.00
2023-03-20T16:59:16.093Z,34.79
2023-03-20T17:00:16.085Z,34.09
2023-03-20T17:01:16.190Z,34.00
2023-03-20T17:02:16.066Z,34.79
2023-03-20T17:03:16.064Z,34.40
2023-03-20T17:04:16.075Z,34.70
2023-03-20T17:05:16.059Z,34.90
2023-03-20T17:06:16.023Z,33.29
2023-03-20T17:07:16.041Z,35.50
2023-03-20T17:08:16.005Z,35.00
2023-03-20T17:09:16.023Z,36.00
2023-03-20T17:10:15.984Z,37.09
2023-03-20T17:11:16.466Z,36.59
2023-03-20T17:12:15.963Z,36.70
2023-03-20T17:13:15.954Z,38.09
2023-03-20T17:14:15.965Z,38.00
2023-03-20T17:15:15.932Z,37.29
2023-03-20T17:16:16.004Z,38.00
2023-03-20T17:17:18.919Z,37.20
2023-03-20T17:18:15.896Z,38.40
2023-03-20T17:19:15.906Z,36.79
2023-03-20T17:20:15.882Z,37.90
2023-03-20T17:21:15.937Z,39.79
2023-03-20T17:22:15.877Z,39.40